createdAt,value
2023-05-21T00:01:44.066Z,79.32
2023-05-21T00:04:13.227Z,80.20
2023-05-21T00:06:40.224Z,79.69
2023-05-21T00:09:07.947Z,79.42
2023-05-21T00:11:34.859Z,79.82
2023-05-21T00:14:01.913Z,79.80
2023-05-21T00:16:28.889Z,79.85
2023-05-21T00:18:58.278Z,80.07
2023-05-21T00:21:26.237Z,80.40
2023-05-21T00:23:56.838Z,80.29
2023-05-21T00:26:26.786Z,80.15
2023-05-21T00:28:57.170Z,79.88
2023-05-21T00:31:24.879Z,80.04
2023-05-21T00:33:51.738Z,79.99
2023-05-21T00:36:18.692Z,80.17
2023-05-21T00:38:45.961Z,80.20
2023-05-21T00:41:13.390Z,80.23
2023-05-21T00:43:41.210Z,79.95
2023-05-21T00:46:12.128Z,79.96
2023-05-21T00:48:39.841Z,80.02
2023-05-21T00:51:06.910Z,80.27
2023-05-21T00:53:35.726Z,80.40
2023-05-21T00:56:03.815Z,80.45
2023-05-21T00:58:33.443Z,80.80
2023-05-21T01:01:03.829Z,80.68
2023-05-21T01:03:31.162Z,80.76
2023-05-21T01:06:00.194Z,80.88
2023-05-21T01:08:28.847Z,81.17
2023-05-21T01:10:57.629Z,80.72
2023-05-21T01:13:26.238Z,80.69
2023-05-21T01:15:54.186Z,80.72
2023-05-21T01:18:22.209Z,80.80
2023-05-21T01:20:49.273Z,80.94
2023-05-21T01:23:20.398Z,80.96
2023-05-21T01:25:47.765Z,81.07
2023-05-21T01:28:14.937Z,81.49
2023-05-21T01:30:44.137Z,81.02
2023-05-21T01:33:18.613Z,81.33
2023-05-21T01:35:54.177Z,81.59
2023-05-21T01:38:37.780Z,81.40
2023-05-21T01:41:10.758Z,81.46
2023-05-21T01:43:39.981Z,81.70
2023-05-21T01:46:10.155Z,81.33
2023-05-21T01:48:38.814Z,81.33
2023-05-21T01:51:06.635Z,81.52
2023-05-21T01:53:33.575Z,81.85
2023-05-21T01:56:00.926Z,81.76
2023-05-21T01:58:27.836Z,82.05
2023-05-21T02:00:54.783Z,81.80
2023-05-21T02:03:23.157Z,82.00
2023-05-21T02:05:52.138Z,83.13
2023-05-21T02:08:20.252Z,82.68
2023-05-21T02:10:47.360Z,82.32
2023-05-21T02:13:14.278Z,82.53
2023-05-21T02:15:41.801Z,82.68
2023-05-21T02:18:09.679Z,82.54
2023-05-21T02:20:36.767Z,82.45
2023-05-21T02:23:03.624Z,82.35
2023-05-21T02:25:30.675Z,82.14
2023-05-21T02:27:57.722Z,82.23
2023-05-21T02:30:24.684Z,82.22
2023-05-21T02:32:51.702Z,82.22
2023-05-21T02:35:18.637Z,82.29
2023-05-21T02:37:45.674Z,82.36
2023-05-21T02:40:13.287Z,82.33
2023-05-21T02:42:41.505Z,82.15
2023-05-21T02:45:12.916Z,81.98
2023-05-21T02:47:42.218Z,82.06
2023-05-21T02:50:09.974Z,82.15
2023-05-21T02:52:44.172Z,82.10
2023-05-21T02:55:11.192Z,81.97
2023-05-21T02:57:38.123Z,82.02
2023-05-21T03:00:09.789Z,82.10
2023-05-21T03:02:38.527Z,81.99
2023-05-21T03:05:06.139Z,82.04
2023-05-21T03:07:33.743Z,81.99
2023-05-21T03:10:00.917Z,82.17
2023-05-21T03:12:27.911Z,82.20
2023-05-21T03:14:56.497Z,82.26
2023-05-21T03:17:23.907Z,82.30
2023-05-21T03:19:50.899Z,82.10
2023-05-21T03:22:17.975Z,81.94
2023-05-21T03:24:46.337Z,81.73
2023-05-21T03:27:13.910Z,81.62
2023-05-21T03:29:40.929Z,81.43
2023-05-21T03:32:08.323Z,81.30
2023-05-21T03:34:35.760Z,81.27
2023-05-21T03:37:03.333Z,81.59
2023-05-21T03:39:31.609Z,81.61
2023-05-21T03:41:59.362Z,81.85
2023-05-21T03:44:46.630Z,81.90
2023-05-21T03:47:46.041Z,81.81
2023-05-21T03:50:13.207Z,81.81
2023-05-21T03:52:40.673Z,81.91
2023-05-21T03:55:08.085Z,82.01
2023-05-21T03:57:35.620Z,81.88
2023-05-21T04:00:02.728Z,81.88
2023-05-21T04:02:32.228Z,81.54
2023-05-21T04:04:59.173Z,81.17
2023-05-21T04:07:27.177Z,80.59
2023-05-21T04:09:54.137Z,80.19
2023-05-21T04:12:21.065Z,79.03
2023-05-21T04:14:48.522Z,75.82
2023-05-21T04:17:15.639Z,72.80
2023-05-21T04:19:44.246Z,72.16
2023-05-21T04:22:12.320Z,70.84
2023-05-21T04:24:39.578Z,69.26
2023-05-21T04:27:28.784Z,67.51
2023-05-21T04:29:58.165Z,61.21
2023-05-21T04:32:25.177Z,53.52
2023-05-21T04:34:52.137Z,51.46
2023-05-21T04:37:19.186Z,48.70
2023-05-21T04:39:46.992Z,47.79
2023-05-21T04:42:14.446Z,47.52
2023-05-21T04:44:44.535Z,48.45
2023-05-21T04:47:14.949Z,49.58
2023-05-21T04:49:42.445Z,50.56
2023-05-21T04:52:09.432Z,51.33
2023-05-21T04:54:39.017Z,51.78
2023-05-21T04:57:06.878Z,52.75
2023-05-21T04:59:34.968Z,52.08
2023-05-21T05:02:01.902Z,48.10
2023-05-21T05:04:28.831Z,45.11
2023-05-21T05:06:56.180Z,45.32
2023-05-21T05:09:25.268Z,45.40
2023-05-21T05:11:52.973Z,45.73
2023-05-21T05:14:19.991Z,45.41
2023-05-21T05:16:48.329Z,44.02
2023-05-21T05:19:16.418Z,43.40
2023-05-21T05:21:44.440Z,40.12
2023-05-21T05:24:11.660Z,34.72
2023-05-21T05:26:38.672Z,31.09
2023-05-21T05:29:05.661Z,28.35
2023-05-21T05:31:32.608Z,26.33
2023-05-21T05:33:59.794Z,25.85
2023-05-21T05:36:27.221Z,24.25
2023-05-21T05:38:54.223Z,22.84
2023-05-21T05:41:22.784Z,22.05
2023-05-21T05:43:50.406Z,21.13
2023-05-21T05:46:18.308Z,20.81
2023-05-21T05:48:45.561Z,20.73
2023-05-21T05:51:13.296Z,19.39
2023-05-21T05:53:40.298Z,18.88
2023-05-21T05:56:07.660Z,18.06
2023-05-21T05:58:34.618Z,18.60
2023-05-21T06:01:11.874Z,17.65
2023-05-21T06:03:39.632Z,17.99
2023-05-21T06:06:12.173Z,17.75
2023-05-21T06:08:40.720Z,17.39
2023-05-21T06:11:07.882Z,16.57
2023-05-21T06:13:34.838Z,16.06
2023-05-21T06:16:03.944Z,15.87
2023-05-21T06:18:31.077Z,16.34
2023-05-21T06:20:58.047Z,16.27
2023-05-21T06:23:25.403Z,16.68
2023-05-21T06:25:52.911Z,16.15
2023-05-21T06:28:20.369Z,15.53
2023-05-21T06:30:48.813Z,15.06
2023-05-21T06:33:16.292Z,15.04
2023-05-21T06:35:44.122Z,15.22
2023-05-21T06:38:11.886Z,14.74
2023-05-21T06:40:38.834Z,14.05
2023-05-21T06:43:06.279Z,14.48
2023-05-21T06:45:51.611Z,17.37
2023-05-21T06:48:28.035Z,20.46
2023-05-21T06:50:55.048Z,21.05
2023-05-21T06:53:22.255Z,19.59
2023-05-21T06:55:53.857Z,18.48
2023-05-21T06:58:38.983Z,17.28
2023-05-21T07:01:06.137Z,16.69
2023-05-21T07:03:33.307Z,15.94
2023-05-21T07:06:00.423Z,15.80
2023-05-21T07:08:27.534Z,15.19
2023-05-21T07:10:56.451Z,15.56
2023-05-21T07:13:23.660Z,14.50
2023-05-21T07:15:50.928Z,14.00
2023-05-21T07:18:18.011Z,13.86
2023-05-21T07:20:45.066Z,14.49
2023-05-21T07:23:14.903Z,13.81
2023-05-21T07:25:41.884Z,13.64
2023-05-21T07:28:08.916Z,13.34
2023-05-21T07:30:36.751Z,12.55
2023-05-21T07:33:08.052Z,12.41
2023-05-21T07:35:35.459Z,12.02
2023-05-21T07:38:03.951Z,11.49
2023-05-21T07:40:31.121Z,0.00
2023-05-21T07:42:58.950Z,10.62
2023-05-21T07:45:29.309Z,12.68
2023-05-21T07:47:56.621Z,14.23
2023-05-21T07:50:25.572Z,16.06
2023-05-21T07:52:52.948Z,19.15
2023-05-21T07:55:20.867Z,21.20
2023-05-21T07:57:48.276Z,24.50
2023-05-21T08:00:17.581Z,0.00
2023-05-21T08:02:52.535Z,0.00
2023-05-21T08:05:21.339Z,29.68
2023-05-21T08:07:48.839Z,31.16
2023-05-21T08:10:18.476Z,32.26
2023-05-21T08:12:47.019Z,32.94
2023-05-21T08:15:13.953Z,33.53
2023-05-21T08:17:44.725Z,33.59
2023-05-21T08:20:15.080Z,34.29
2023-05-21T08:22:43.896Z,34.79
2023-05-21T08:25:11.541Z,36.04
2023-05-21T08:27:38.571Z,35.66
2023-05-21T08:30:06.407Z,34.97
2023-05-21T08:32:33.462Z,34.83
2023-05-21T08:35:01.396Z,35.30
2023-05-21T08:37:50.088Z,34.00
2023-05-21T08:40:36.057Z,32.97
2023-05-21T08:43:03.340Z,33.17
2023-05-21T08:45:42.794Z,29.99
2023-05-21T08:48:11.940Z,28.81
2023-05-21T08:50:41.015Z,28.26
2023-05-21T08:53:24.172Z,28.05
2023-05-21T08:55:57.494Z,27.15
2023-05-21T08:58:33.927Z,28.52
2023-05-21T09:01:02.159Z,27.25
2023-05-21T09:03:33.120Z,27.16
2023-05-21T09:06:00.800Z,26.62
2023-05-21T09:08:35.965Z,26.26
2023-05-21T09:11:10.885Z,25.49
2023-05-21T09:13:46.387Z,24.32
2023-05-21T09:16:21.235Z,26.30
2023-05-21T09:18:49.659Z,25.91
2023-05-21T09:21:27.844Z,26.18
2023-05-21T09:24:09.477Z,26.39
2023-05-21T09:26:36.883Z,26.10
2023-05-21T09:29:06.109Z,26.38
2023-05-21T09:31:33.188Z,26.08
2023-05-21T09:34:01.302Z,25.65
2023-05-21T09:36:29.712Z,26.20
2023-05-21T09:38:58.500Z,25.66
2023-05-21T09:41:36.958Z,25.61
2023-05-21T09:44:05.121Z,25.16
2023-05-21T09:46:41.687Z,25.72
2023-05-21T09:49:29.232Z,26.36
2023-05-21T09:51:58.961Z,24.23
2023-05-21T09:54:31.120Z,23.89
2023-05-21T09:56:59.283Z,23.69
2023-05-21T09:59:41.567Z,25.32
2023-05-21T10:02:24.816Z,24.56
2023-05-21T10:04:54.463Z,23.95
2023-05-21T10:07:31.838Z,24.60
2023-05-21T10:10:01.287Z,24.14
2023-05-21T10:12:31.491Z,24.65
2023-05-21T10:15:04.644Z,24.50
2023-05-21T10:17:31.855Z,24.63
2023-05-21T10:20:00.642Z,23.63
2023-05-21T10:22:28.343Z,23.19
2023-05-21T10:24:56.656Z,24.07
2023-05-21T10:27:23.684Z,22.94
2023-05-21T10:29:51.870Z,23.01
2023-05-21T10:32:21.659Z,23.78
2023-05-21T10:34:49.592Z,23.62
2023-05-21T10:37:17.071Z,22.95
2023-05-21T10:39:46.012Z,22.72
2023-05-21T10:42:21.504Z,23.22
2023-05-21T10:45:16.181Z,23.14
2023-05-21T10:48:02.118Z,22.67
2023-05-21T10:50:50.642Z,22.34
2023-05-21T10:53:33.091Z,22.24
2023-05-21T10:56:15.046Z,21.55
2023-05-21T10:58:48.032Z,21.92
2023-05-21T11:01:16.338Z,22.68
2023-05-21T11:03:43.691Z,22.90
2023-05-21T11:06:11.697Z,22.30
2023-05-21T11:08:39.218Z,22.72
2023-05-21T11:11:06.927Z,22.46
2023-05-21T11:13:49.075Z,21.89
2023-05-21T11:16:17.788Z,22.81
2023-05-21T11:18:47.906Z,22.70
2023-05-21T11:21:21.135Z,22.50
2023-05-21T11:23:52.063Z,22.84
2023-05-21T11:26:21.824Z,22.91
2023-05-21T11:29:06.651Z,22.79
2023-05-21T11:31:38.743Z,22.77
2023-05-21T11:34:18.744Z,23.30
2023-05-21T11:36:50.183Z,21.79
2023-05-21T11:39:22.261Z,22.17
2023-05-21T11:42:00.930Z,23.05
2023-05-21T11:44:44.767Z,21.98
2023-05-21T11:47:16.234Z,20.95
2023-05-21T11:49:43.629Z,21.40
2023-05-21T11:52:11.960Z,21.60
2023-05-21T11:54:48.615Z,21.18
2023-05-21T11:57:17.427Z,20.45
2023-05-21T11:59:45.540Z,20.21
2023-05-21T12:02:18.965Z,21.74
2023-05-21T12:04:50.689Z,21.64
2023-05-21T12:07:22.048Z,22.66
2023-05-21T12:09:50.507Z,23.26
2023-05-21T12:12:19.257Z,23.24
2023-05-21T12:14:49.085Z,23.89
2023-05-21T12:17:17.643Z,25.02
2023-05-21T12:19:47.107Z,25.75
2023-05-21T12:22:16.585Z,25.01
2023-05-21T12:24:44.173Z,25.85
2023-05-21T12:27:13.563Z,26.56
2023-05-21T12:29:43.524Z,24.27
2023-05-21T12:32:12.728Z,27.18
2023-05-21T12:34:53.080Z,25.85
